Time;durP1;ratioP1;P1;durP2;ratioP2;P2;SDS_P1;SDS_P2;PMS_P1;PMS_P2;Temp;Humidity;BMP_temperature;BMP_pressure;BME280_temperature;BME280_humidity;BME280_pressure;Samples;Min_cycle;Max_cycle;Signal;HPM_P1;HPM_P2
2023/10/30 00:00:09;41311.00;0.14;72.16;0.00;0.00;0.62;;;;;17.80;1.00;;;;;;2272487;61;1077;-86
2023/10/30 00:02:36;109545.00;0.37;190.04;0.00;0.00;0.62;;;;;17.70;1.00;;;;;;2272454;61;1353;-86
2023/10/30 00:05:03;34463.00;0.11;60.31;0.00;0.00;0.62;;;;;17.70;1.00;;;;;;2272388;61;1594;-86
2023/10/30 00:07:32;0.00;0.00;0.62;0.00;0.00;0.62;;;;;17.60;1.00;;;;;;2272499;61;1051;-86
2023/10/30 00:09:58;79328.00;0.26;137.88;0.00;0.00;0.62;;;;;17.40;1.00;;;;;;2272402;61;1921;-86
2023/10/30 00:12:25;9756.00;0.03;17.53;0.00;0.00;0.62;;;;;16.80;1.00;;;;;;2272518;61;1370;-86
2023/10/30 00:14:52;13164.00;0.04;23.43;0.00;0.00;0.62;;;;;16.70;1.00;;;;;;2272415;61;1031;-87
2023/10/30 00:17:19;110589.00;0.37;191.85;0.00;0.00;0.62;;;;;16.90;1.00;;;;;;2272482;61;1161;-88
2023/10/30 00:19:46;0.00;0.00;0.62;0.00;0.00;0.62;;;;;16.60;1.00;;;;;;2272496;61;1028;-87
2023/10/30 00:22:12;124526.00;0.42;215.89;0.00;0.00;0.62;;;;;16.50;1.00;;;;;;2272343;61;1468;-86
2023/10/30 00:24:41;0.00;0.00;0.62;0.00;0.00;0.62;;;;;16.80;1.00;;;;;;2272243;61;1098;-86
2023/10/30 00:27:08;52060.00;0.17;90.75;0.00;0.00;0.62;;;;;17.20;1.00;;;;;;2272381;61;1611;-86
2023/10/30 00:29:39;0.00;0.00;0.62;0.00;0.00;0.62;;;;;17.40;1.00;;;;;;2272349;61;1124;-86
2023/10/30 00:32:06;0.00;0.00;0.62;0.00;0.00;0.62;;;;;17.50;1.00;;;;;;2272314;61;2025;-86
2023/10/30 00:34:33;0.00;0.00;0.62;0.00;0.00;0.62;;;;;17.20;1.00;;;;;;2272420;61;1162;-87
2023/10/30 00:37:00;14830.00;0.05;26.32;0.00;0.00;0.62;;;;;16.90;1.00;;;;;;2272321;61;1147;-87
2023/10/30 00:39:27;93457.00;0.31;162.28;0.00;0.00;0.62;;;;;17.10;1.00;;;;;;2272377;61;1060;-87
2023/10/30 00:41:55;43739.00;0.15;76.36;0.00;0.00;0.62;;;;;16.90;1.00;;;;;;2272291;61;1503;-87
2023/10/30 00:44:22;57122.00;0.19;99.50;0.00;0.00;0.62;;;;;16.60;1.00;;;;;;2272337;61;1054;-87
2023/10/30 00:46:51;0.00;0.00;0.62;0.00;0.00;0.62;;;;;16.50;1.00;;;;;;2272168;61;1181;-85
2023/10/30 00:49:18;0.00;0.00;0.62;0.00;0.00;0.62;;;;;16.60;1.00;;;;;;2272272;61;1285;-85
2023/10/30 00:51:45;184077.00;0.61;318.51;48092.00;0.16;83.89;;;;;16.70;1.00;;;;;;2272001;61;2002;-86
2023/10/30 00:54:12;55547.00;0.19;96.78;0.00;0.00;0.62;;;;;16.70;1.00;;;;;;2272159;61;1675;-85
2023/10/30 00:56:39;49161.00;0.16;85.74;0.00;0.00;0.62;;;;;16.70;1.00;;;;;;2272279;61;1315;-85
2023/10/30 00:59:07;10138.00;0.03;18.19;0.00;0.00;0.62;;;;;16.60;1.00;;;;;;2272025;61;1232;-86
2023/10/30 01:01:34;0.00;0.00;0.62;0.00;0.00;0.62;;;;;17.00;1.00;;;;;;2272170;61;1030;-85
2023/10/30 01:04:01;27352.00;0.09;48.00;0.00;0.00;0.62;;;;;17.00;1.00;;;;;;2271997;61;1755;-86
2023/10/30 01:06:27;19888.00;0.07;35.08;0.00;0.00;0.62;;;;;17.00;1.00;;;;;;2272307;61;1117;-85
2023/10/30 01:08:54;0.00;0.00;0.62;0.00;0.00;0.62;;;;;17.00;1.00;;;;;;2271958;61;1548;-86
2023/10/30 01:11:21;21463.00;0.07;37.80;0.00;0.00;0.62;;;;;17.20;1.00;;;;;;2272028;61;1988;-86
2023/10/30 01:13:48;2587.00;0.01;5.10;0.00;0.00;0.62;;;;;17.30;1.00;;;;;;2271745;61;1461;-85
2023/10/30 01:16:16;57323.00;0.19;99.85;0.00;0.00;0.62;;;;;17.50;1.00;;;;;;2271821;61;1157;-85
2023/10/30 01:18:43;60877.00;0.20;105.99;0.00;0.00;0.62;;;;;17.50;1.00;;;;;;2271761;61;1252;-85
2023/10/30 01:21:10;26723.00;0.09;46.91;0.00;0.00;0.62;;;;;17.40;1.00;;;;;;2271804;61;1058;-86
2023/10/30 01:23:37;0.00;0.00;0.62;0.00;0.00;0.62;;;;;17.10;1.00;;;;;;2271817;61;1346;-86
2023/10/30 01:26:04;0.00;0.00;0.62;0.00;0.00;0.62;;;;;17.20;1.00;;;;;;2271804;61;1157;-85
2023/10/30 01:28:31;0.00;0.00;0.62;0.00;0.00;0.62;;;;;17.00;1.00;;;;;;2271751;61;1560;-85
2023/10/30 01:30:58;0.00;0.00;0.62;0.00;0.00;0.62;;;;;17.10;1.00;;;;;;2271737;61;2013;-86
2023/10/30 01:33:26;0.00;0.00;0.62;0.00;0.00;0.62;;;;;17.00;1.00;;;;;;2271898;61;1302;-86
2023/10/30 01:35:55;0.00;0.00;0.62;0.00;0.00;0.62;;;;;16.90;1.00;;;;;;2272005;61;1138;-85
2023/10/30 01:38:22;23707.00;0.08;41.69;0.00;0.00;0.62;;;;;17.10;1.00;;;;;;2271908;61;1305;-85
2023/10/30 01:40:49;0.00;0.00;0.62;0.00;0.00;0.62;;;;;17.00;1.00;;;;;;2271979;61;1116;-85
2023/10/30 01:43:17;0.00;0.00;0.62;0.00;0.00;0.62;;;;;17.00;1.00;;;;;;2271937;61;1288;-86
2023/10/30 01:45:43;0.00;0.00;0.62;0.00;0.00;0.62;;;;;16.90;1.00;;;;;;2271866;61;1707;-85
2023/10/30 01:48:11;69776.00;0.23;121.37;0.00;0.00;0.62;;;;;16.80;1.00;;;;;;2272117;61;974;-86
2023/10/30 01:50:39;72378.00;0.24;125.87;0.00;0.00;0.62;;;;;16.80;1.00;;;;;;2272108;61;1923;-87
2023/10/30 01:53:06;62033.00;0.21;107.99;0.00;0.00;0.62;;;;;17.10;1.00;;;;;;2271900;61;1351;-85
2023/10/30 01:55:33;159888.00;0.53;276.85;0.00;0.00;0.62;;;;;17.30;1.00;;;;;;2271904;61;1168;-85
2023/10/30 01:58:00;0.00;0.00;0.62;0.00;0.00;0.62;;;;;17.00;1.00;;;;;;2271908;61;1129;-85
2023/10/30 02:00:28;0.00;0.00;0.62;0.00;0.00;0.62;;;;;17.10;1.00;;;;;;2271843;61;1099;-85
2023/10/30 02:02:58;43937.00;0.15;76.70;0.00;0.00;0.62;;;;;17.30;1.00;;;;;;2271836;61;1449;-86
2023/10/30 02:05:25;61707.00;0.21;107.43;0.00;0.00;0.62;;;;;17.30;1.00;;;;;;2271999;61;1126;-85
2023/10/30 02:07:53;0.00;0.00;0.62;0.00;0.00;0.62;;;;;17.10;1.00;;;;;;2271847;61;1456;-85
2023/10/30 02:10:21;35091.00;0.12;61.39;0.00;0.00;0.62;;;;;17.40;1.00;;;;;;2271741;61;1550;-85
2023/10/30 02:12:49;10421.00;0.03;18.68;0.00;0.00;0.62;;;;;17.40;1.00;;;;;;2271836;61;1998;-86
2023/10/30 02:15:16;92287.00;0.31;160.26;0.00;0.00;0.62;;;;;17.60;1.00;;;;;;2272083;61;1502;-86
2023/10/30 02:17:43;60075.00;0.20;104.61;0.00;0.00;0.62;;;;;17.60;1.00;;;;;;2272118;61;979;-88
2023/10/30 02:20:11;16394.00;0.05;29.03;0.00;0.00;0.62;;;;;17.40;1.00;;;;;;2272170;61;1071;-88
2023/10/30 02:22:38;102612.00;0.34;178.08;0.00;0.00;0.62;;;;;17.30;1.00;;;;;;2272132;61;1278;-87
2023/10/30 02:25:07;46267.00;0.15;80.73;0.00;0.00;0.62;;;;;17.30;1.00;;;;;;2272072;61;1074;-87
2023/10/30 02:27:36;0.00;0.00;0.62;0.00;0.00;0.62;;;;;17.40;1.00;;;;;;2272062;61;1701;-87
2023/10/30 02:30:03;120598.00;0.40;209.11;0.00;0.00;0.62;;;;;17.70;1.00;;;;;;2271914;61;1667;-86
2023/10/30 02:32:29;0.00;0.00;0.62;0.00;0.00;0.62;;;;;17.90;1.00;;;;;;2271520;61;2019;-85
2023/10/30 02:34:56;81043.00;0.27;140.84;0.00;0.00;0.62;;;;;18.00;1.00;;;;;;2271973;61;1240;-86
2023/10/30 02:37:23;82937.00;0.28;144.11;0.00;0.00;0.62;;;;;17.90;1.00;;;;;;2271908;61;1398;-88
2023/10/30 02:39:50;106624.00;0.36;185.00;0.00;0.00;0.62;;;;;18.00;1.00;;;;;;2271905;61;1618;-86
2023/10/30 02:42:17;0.00;0.00;0.62;0.00;0.00;0.62;;;;;17.70;1.00;;;;;;2271923;61;1230;-87
2023/10/30 02:44:45;73454.00;0.24;127.73;0.00;0.00;0.62;;;;;17.80;1.00;;;;;;2271858;61;1625;-86
2023/10/30 02:47:12;50120.00;0.17;87.39;0.00;0.00;0.62;;;;;17.90;1.00;;;;;;2271907;61;1561;-86
2023/10/30 02:49:39;0.00;0.00;0.62;0.00;0.00;0.62;;;;;17.90;1.00;;;;;;2271935;61;1620;-85
2023/10/30 02:52:06;251597.00;0.84;434.70;29044.00;0.10;50.93;;;;;17.80;1.00;;;;;;2271994;61;1918;-87
2023/10/30 02:54:33;146166.00;0.49;253.20;21538.00;0.07;37.93;;;;;17.70;1.00;;;;;;2271912;61;1761;-86
2023/10/30 02:57:00;98239.00;0.33;170.53;0.00;0.00;0.62;;;;;17.60;1.00;;;;;;2271912;61;998;-87
2023/10/30 02:59:27;0.00;0.00;0.62;0.00;0.00;0.62;;;;;17.60;1.00;;;;;;2272003;61;1211;-86
2023/10/30 03:01:54;122035.00;0.41;211.59;0.00;0.00;0.62;;;;;17.70;1.00;;;;;;2271881;61;2316;-86
2023/10/30 03:04:22;201050.00;0.67;347.73;0.00;0.00;0.62;;;;;17.90;1.00;;;;;;2271806;61;2455;-86
2023/10/30 03:06:49;0.00;0.00;0.62;0.00;0.00;0.62;;;;;17.90;1.00;;;;;;2271865;61;1593;-86
2023/10/30 03:09:16;115094.00;0.38;199.62;0.00;0.00;0.62;;;;;18.00;1.00;;;;;;2271774;61;1054;-86
2023/10/30 03:11:43;0.00;0.00;0.62;0.00;0.00;0.62;;;;;17.80;1.00;;;;;;2271922;61;2010;-86
2023/10/30 03:14:09;205118.00;0.68;354.73;0.00;0.00;0.62;;;;;17.80;1.00;;;;;;2271812;61;1303;-85
2023/10/30 03:16:36;0.00;0.00;0.62;0.00;0.00;0.62;;;;;17.80;1.00;;;;;;2271906;61;1162;-85
2023/10/30 03:19:05;89768.00;0.30;155.91;0.00;0.00;0.62;;;;;17.60;1.00;;;;;;2271871;61;1741;-86
2023/10/30 03:21:32;211354.00;0.70;365.47;30563.00;0.10;53.56;;;;;17.10;1.00;;;;;;2271909;61;1689;-86
2023/10/30 03:23:58;147726.00;0.49;255.89;0.00;0.00;0.62;;;;;17.20;1.00;;;;;;2271782;61;1298;-86
2023/10/30 03:26:25;170228.00;0.57;294.66;0.00;0.00;0.62;;;;;17.40;1.00;;;;;;2271846;61;1529;-87
2023/10/30 03:28:52;42069.00;0.14;73.47;0.00;0.00;0.62;;;;;17.40;1.00;;;;;;2271881;61;979;-86
2023/10/30 03:31:20;132199.00;0.44;229.12;0.00;0.00;0.62;;;;;17.50;1.00;;;;;;2271883;61;2009;-87
2023/10/30 03:33:46;64745.00;0.22;112.68;0.00;0.00;0.62;;;;;17.50;1.00;;;;;;2271788;61;1602;-88
2023/10/30 03:36:20;53576.00;0.18;93.37;0.00;0.00;0.62;;;;;17.30;1.00;;;;;;2271895;61;1088;-87
2023/10/30 03:38:48;273676.00;0.91;472.66;55952.00;0.19;97.48;;;;;17.20;1.00;;;;;;2271874;61;1075;-87
2023/10/30 03:41:15;62387.00;0.21;108.60;0.00;0.00;0.62;;;;;17.20;1.00;;;;;;2271936;61;1071;-87
2023/10/30 03:43:41;57965.00;0.19;100.96;0.00;0.00;0.62;;;;;17.20;1.00;;;;;;2272234;61;1323;-85
2023/10/30 03:46:08;142141.00;0.47;246.26;39313.00;0.13;68.70;;;;;17.10;1.00;;;;;;2272530;61;1506;-86
2023/10/30 03:48:35;216317.00;0.72;374.01;0.00;0.00;0.62;;;;;17.30;1.00;;;;;;2272513;61;1575;-88
2023/10/30 03:51:03;170756.00;0.57;295.57;0.00;0.00;0.62;;;;;17.40;1.00;;;;;;2272521;61;1919;-88
2023/10/30 03:53:32;125240.00;0.42;217.12;0.00;0.00;0.62;;;;;17.50;1.00;;;;;;2272455;61;1329;-88
2023/10/30 03:56:04;79303.00;0.26;137.83;0.00;0.00;0.62;;;;;17.20;1.00;;;;;;2272547;61;978;-87
2023/10/30 03:58:39;0.00;0.00;0.62;0.00;0.00;0.62;;;;;17.20;1.00;;;;;;2272608;61;1134;-88
2023/10/30 04:01:07;53455.00;0.18;93.16;0.00;0.00;0.62;;;;;17.20;1.00;;;;;;2272587;61;1680;-87
2023/10/30 04:03:34;36430.00;0.12;63.71;0.00;0.00;0.62;;;;;17.10;1.00;;;;;;2272615;61;1569;-87
2023/10/30 04:06:02;61541.00;0.21;107.14;0.00;0.00;0.62;;;;;17.10;1.00;;;;;;2272741;61;1036;-89
2023/10/30 04:08:29;180021.00;0.60;311.53;0.00;0.00;0.62;;;;;17.20;1.00;;;;;;2272785;61;1118;-88
2023/10/30 04:10:57;115837.00;0.39;200.90;6613.00;0.02;12.08;;;;;17.20;1.00;;;;;;2272735;61;2356;-88
2023/10/30 04:13:24;0.00;0.00;0.62;0.00;0.00;0.62;;;;;17.10;1.00;;;;;;2272581;61;2013;-89
2023/10/30 04:15:51;107258.00;0.36;186.10;0.00;0.00;0.62;;;;;17.10;1.00;;;;;;2272680;61;1674;-89
2023/10/30 04:18:18;139327.00;0.46;241.41;0.00;0.00;0.62;;;;;17.10;1.00;;;;;;2272859;61;1059;-86
2023/10/30 04:20:45;202061.00;0.67;349.47;28555.00;0.10;50.08;;;;;17.10;1.00;;;;;;2272762;61;1706;-87
2023/10/30 04:23:12;97391.00;0.32;169.07;0.00;0.00;0.62;;;;;17.30;1.00;;;;;;2272693;61;2424;-88
2023/10/30 04:25:39;107844.00;0.36;187.11;0.00;0.00;0.62;;;;;17.20;1.00;;;;;;2272724;61;1024;-86
2023/10/30 04:28:07;19866.00;0.07;35.04;0.00;0.00;0.62;;;;;17.40;1.00;;;;;;2272729;61;1070;-87
2023/10/30 04:30:35;0.00;0.00;0.62;0.00;0.00;0.62;;;;;17.00;1.00;;;;;;2272656;61;1528;-87
2023/10/30 04:33:02;0.00;0.00;0.62;0.00;0.00;0.62;;;;;17.00;1.00;;;;;;2272708;61;1998;-87
2023/10/30 04:35:29;153306.00;0.51;265.50;0.00;0.00;0.62;;;;;16.60;1.00;;;;;;2272703;61;1078;-88
2023/10/30 04:37:56;49167.00;0.16;85.75;0.00;0.00;0.62;;;;;16.60;1.00;;;;;;2272730;61;1014;-87
2023/10/30 04:40:23;178249.00;0.59;308.47;0.00;0.00;0.62;;;;;16.80;1.00;;;;;;2272791;61;1082;-87
2023/10/30 04:42:50;381300.00;1.27;657.66;43083.00;0.14;75.22;;;;;16.70;1.00;;;;;;2272746;61;1389;-87
2023/10/30 04:45:19;160956.00;0.54;278.69;0.00;0.00;0.62;;;;;16.30;1.00;;;;;;2272744;61;993;-85
2023/10/30 04:47:46;80975.00;0.27;140.72;0.00;0.00;0.62;;;;;16.40;1.00;;;;;;2272406;61;1102;-89
2023/10/30 04:50:12;86812.00;0.29;150.80;0.00;0.00;0.62;;;;;16.70;1.00;;;;;;2272618;61;937;-86
2023/10/30 04:52:40;148535.00;0.50;257.28;0.00;0.00;0.62;;;;;16.80;1.00;;;;;;2272407;61;1928;-87
2023/10/30 04:55:07;171658.00;0.57;297.12;0.00;0.00;0.62;;;;;17.00;1.00;;;;;;2272229;61;1580;-88
2023/10/30 04:57:34;24220.00;0.08;42.58;0.00;0.00;0.62;;;;;16.90;1.00;;;;;;2272599;61;1199;-88
2023/10/30 05:00:04;206622.00;0.69;357.32;0.00;0.00;0.62;;;;;16.60;1.00;;;;;;2272631;61;1008;-89
2023/10/30 05:02:32;65709.00;0.22;114.34;0.00;0.00;0.62;;;;;16.30;1.00;;;;;;2272392;61;1788;-86
2023/10/30 05:04:59;162800.00;0.54;281.86;0.00;0.00;0.62;;;;;16.50;1.00;;;;;;2272604;61;884;-87
2023/10/30 05:07:26;91088.00;0.30;158.19;0.00;0.00;0.62;;;;;16.70;1.00;;;;;;2272447;61;1768;-89
2023/10/30 05:09:53;241941.00;0.81;418.09;0.00;0.00;0.62;;;;;16.80;1.00;;;;;;2272264;61;1729;-88
2023/10/30 05:12:21;123586.00;0.41;214.27;0.00;0.00;0.62;;;;;16.80;1.00;;;;;;2272437;61;2002;-90
2023/10/30 05:14:48;77656.00;0.26;134.99;0.00;0.00;0.62;;;;;16.70;1.00;;;;;;2272479;61;945;-86
2023/10/30 05:17:15;0.00;0.00;0.62;0.00;0.00;0.62;;;;;17.00;1.00;;;;;;2272455;61;1705;-86
2023/10/30 05:19:43;85240.00;0.28;148.09;0.00;0.00;0.62;;;;;16.80;1.00;;;;;;2272571;61;984;-87
2023/10/30 05:22:10;241332.00;0.80;417.04;0.00;0.00;0.62;;;;;16.80;1.00;;;;;;2272494;61;1297;-88
2023/10/30 05:24:37;292244.00;0.97;504.59;0.00;0.00;0.62;;;;;16.70;1.00;;;;;;2305164;40;3570;-87
2023/10/30 05:27:05;246804.00;0.82;426.45;0.00;0.00;0.62;;;;;16.60;1.00;;;;;;2280548;61;1243;-88
2023/10/30 05:32:02;322823.00;1.08;557.15;0.00;0.00;0.62;;;;;16.70;1.00;;;;;;2273630;61;1902;-89
2023/10/30 05:34:31;143718.00;0.48;248.98;0.00;0.00;0.62;;;;;16.70;1.00;;;;;;2272447;61;1048;-88
2023/10/30 05:37:01;69531.00;0.23;120.95;0.00;0.00;0.62;;;;;16.60;1.00;;;;;;2272361;61;1260;-88
2023/10/30 05:39:28;54125.00;0.18;94.32;0.00;0.00;0.62;;;;;16.80;1.00;;;;;;2272385;61;1006;-88
2023/10/30 05:41:55;258557.00;0.86;446.67;41512.00;0.14;72.50;;;;;17.00;1.00;;;;;;2272150;61;1380;-87
2023/10/30 05:44:22;130914.00;0.44;226.91;0.00;0.00;0.62;;;;;17.00;1.00;;;;;;2272332;61;1675;-88
2023/10/30 05:49:18;408461.00;1.36;704.35;37536.00;0.13;65.63;;;;;17.00;1.00;;;;;;2273859;61;1359;-88
2023/10/30 05:51:46;159411.00;0.53;276.02;0.00;0.00;0.62;;;;;17.20;1.00;;;;;;2272352;61;1930;-89
2023/10/30 05:54:14;149875.00;0.50;259.59;2355.00;0.01;4.70;;;;;17.10;1.00;;;;;;2272347;61;1751;-89
2023/10/30 05:56:41;198235.00;0.66;342.89;13060.00;0.04;23.25;;;;;17.00;1.00;;;;;;2272138;61;1661;-87
2023/10/30 05:59:08;37700.00;0.13;65.91;0.00;0.00;0.62;;;;;17.00;1.00;;;;;;2272295;61;1051;-87
2023/10/30 06:01:35;184834.00;0.62;319.81;18109.00;0.06;32.00;;;;;17.10;1.00;;;;;;2272412;61;1590;-88
2023/10/30 06:04:03;162881.00;0.54;282.00;0.00;0.00;0.62;;;;;16.90;1.00;;;;;;2272342;61;1622;-87
2023/10/30 06:06:30;99288.00;0.33;172.34;0.00;0.00;0.62;;;;;17.00;1.00;;;;;;2283534;39;3601;-87
2023/10/30 06:08:57;491538.00;1.64;847.26;0.00;0.00;0.62;;;;;17.10;1.00;;;;;;2278375;61;1588;-87
2023/10/30 06:11:26;157289.00;0.52;272.37;0.00;0.00;0.62;;;;;16.80;1.00;;;;;;2276430;61;919;-87
2023/10/30 06:13:52;92460.00;0.31;160.56;0.00;0.00;0.62;;;;;16.90;1.00;;;;;;2272786;61;2006;-87
2023/10/30 06:16:20;132088.00;0.44;228.93;0.00;0.00;0.62;;;;;17.10;1.00;;;;;;2272285;61;898;-87
2023/10/30 06:18:47;160578.00;0.54;278.04;0.00;0.00;0.62;;;;;17.40;1.00;;;;;;2272013;61;1570;-87
2023/10/30 06:21:16;228980.00;0.76;395.79;0.00;0.00;0.62;;;;;16.70;1.00;;;;;;2306101;55;3730;-88
2023/10/30 06:23:43;249784.00;0.83;431.58;0.00;0.00;0.62;;;;;16.90;1.00;;;;;;2272815;61;1391;-89
2023/10/30 06:26:10;273069.00;0.91;471.62;0.00;0.00;0.62;;;;;16.50;1.00;;;;;;2272277;61;1457;-87
2023/10/30 06:28:39;129343.00;0.43;224.20;0.00;0.00;0.62;;;;;16.50;1.00;;;;;;2272050;61;1548;-90
2023/10/30 06:31:14;169444.00;0.56;293.31;0.00;0.00;0.62;;;;;16.40;1.00;;;;;;2272125;61;906;-90
2023/10/30 06:33:41;134244.00;0.45;232.65;0.00;0.00;0.62;;;;;16.60;1.00;;;;;;2272178;61;1931;-89
2023/10/30 06:36:08;167548.00;0.56;290.04;0.00;0.00;0.62;;;;;16.70;1.00;;;;;;2272136;61;1442;-88
2023/10/30 06:38:36;162577.00;0.54;281.48;0.00;0.00;0.62;;;;;16.80;1.00;;;;;;2271942;61;1739;-90
2023/10/30 06:41:03;189741.00;0.63;328.26;0.00;0.00;0.62;;;;;16.80;1.00;;;;;;2271987;61;1603;-88
2023/10/30 06:43:30;89290.00;0.30;155.08;0.00;0.00;0.62;;;;;16.50;1.00;;;;;;2271901;61;1457;-89
2023/10/30 06:46:01;127745.00;0.43;221.44;0.00;0.00;0.62;;;;;16.40;1.00;;;;;;2275434;39;3617;-90
2023/10/30 06:48:29;380733.00;1.27;656.69;0.00;0.00;0.62;;;;;16.40;1.00;;;;;;2275893;61;1416;-88
2023/10/30 06:50:56;181868.00;0.61;314.71;0.00;0.00;0.62;;;;;16.20;1.00;;;;;;2276170;61;1010;-88
2023/10/30 06:53:24;27272.00;0.09;47.86;0.00;0.00;0.62;;;;;16.40;1.00;;;;;;2273345;61;2002;-88
2023/10/30 06:55:52;296167.00;0.99;511.33;0.00;0.00;0.62;;;;;16.40;1.00;;;;;;2271879;61;1532;-89
2023/10/30 06:58:21;195527.00;0.65;338.22;0.00;0.00;0.62;;;;;16.40;1.00;;;;;;2272010;61;1657;-88
2023/10/30 07:00:48;124567.00;0.42;215.96;0.00;0.00;0.62;;;;;16.90;1.00;;;;;;2272032;61;916;-88
2023/10/30 07:03:17;144929.00;0.48;251.07;0.00;0.00;0.62;;;;;16.90;1.00;;;;;;2271881;61;1540;-88
2023/10/30 07:05:44;143287.00;0.48;248.24;0.00;0.00;0.62;;;;;17.40;1.00;;;;;;2271838;61;1130;-89
2023/10/30 07:08:11;175725.00;0.59;304.13;0.00;0.00;0.62;;;;;17.60;1.00;;;;;;2271874;61;1000;-89
2023/10/30 07:10:38;58627.00;0.20;102.10;0.00;0.00;0.62;;;;;17.50;1.00;;;;;;2271770;61;993;-88
2023/10/30 07:13:05;99951.00;0.33;173.49;0.00;0.00;0.62;;;;;17.60;1.00;;;;;;2271989;61;2005;-88
2023/10/30 07:15:31;168582.00;0.56;291.82;0.00;0.00;0.62;;;;;17.50;1.00;;;;;;2272116;61;1485;-90
2023/10/30 07:17:58;136861.00;0.46;237.16;0.00;0.00;0.62;;;;;17.10;1.00;;;;;;2272000;61;1533;-87
2023/10/30 07:20:27;109114.00;0.36;189.30;0.00;0.00;0.62;;;;;17.10;1.00;;;;;;2272500;61;1558;-87
2023/10/30 07:22:54;126575.00;0.42;219.42;0.00;0.00;0.62;;;;;17.00;1.00;;;;;;2272553;61;2374;-87
2023/10/30 07:25:22;46758.00;0.16;81.58;0.00;0.00;0.62;;;;;17.00;1.00;;;;;;2272654;61;1528;-88
2023/10/30 07:27:49;93067.00;0.31;161.60;0.00;0.00;0.62;;;;;17.40;1.00;;;;;;2272664;61;1162;-89
2023/10/30 07:30:17;254592.00;0.85;439.85;0.00;0.00;0.62;;;;;17.20;1.00;;;;;;2272576;61;1529;-88
2023/10/30 07:32:45;126248.00;0.42;218.86;0.00;0.00;0.62;;;;;17.40;1.00;;;;;;2272501;61;2017;-86
2023/10/30 07:35:12;288697.00;0.96;498.49;0.00;0.00;0.62;;;;;17.20;1.00;;;;;;2310176;40;3587;-90
2023/10/30 07:37:40;130771.00;0.44;226.66;0.00;0.00;0.62;;;;;17.20;1.00;;;;;;2276617;61;1256;-87
2023/10/30 07:50:17;467233.00;1.56;805.43;0.00;0.00;0.62;;;;;16.90;1.00;;;;;;2273727;61;1202;-90
2023/10/30 07:55:17;697337.00;2.32;1202.62;0.00;0.00;0.62;;;;;17.40;1.00;;;;;;2271197;61;1320;-90
2023/10/30 07:57:44;313697.00;1.05;541.46;0.00;0.00;0.62;;;;;17.60;1.00;;;;;;2269080;61;1101;-88
2023/10/30 08:00:13;96475.00;0.32;167.49;0.00;0.00;0.62;;;;;17.70;1.00;;;;;;2268374;61;1746;-88
2023/10/30 08:07:38;676463.00;2.25;1166.45;0.00;0.00;0.62;;;;;18.10;1.00;;;;;;2278387;39;3825;-88
2023/10/30 08:10:06;98355.00;0.33;170.73;0.00;0.00;0.62;;;;;18.30;1.00;;;;;;2276333;61;1736;-87
2023/10/30 08:12:35;304800.00;1.02;526.17;0.00;0.00;0.62;;;;;18.50;1.00;;;;;;2281571;55;3731;-86
2023/10/30 08:17:32;704956.00;2.35;1215.83;0.00;0.00;0.62;;;;;18.70;1.00;;;;;;2292808;56;3618;-89
2023/10/30 08:20:00;380218.00;1.27;655.80;41072.00;0.14;71.74;;;;;18.80;1.00;;;;;;2293819;55;3766;-88
2023/10/30 08:22:27;266925.00;0.89;461.06;0.00;0.00;0.62;;;;;18.70;1.00;;;;;;2280898;39;3563;-87
2023/10/30 08:29:52;665566.00;2.22;1147.58;0.00;0.00;0.62;;;;;18.50;1.00;;;;;;2274108;61;1244;-87
2023/10/30 08:37:16;343792.00;1.15;593.19;0.00;0.00;0.62;;;;;18.60;1.00;;;;;;2273859;61;1353;-89
2023/10/30 08:39:44;21884.00;0.07;38.53;0.00;0.00;0.62;;;;;18.70;1.00;;;;;;2272438;61;1743;-88
2023/10/30 08:42:11;157629.00;0.53;272.95;0.00;0.00;0.62;;;;;18.80;1.00;;;;;;2272182;61;1706;-90
2023/10/30 08:59:38;1110060.00;3.70;1928.42;0.00;0.00;0.62;;;;;19.50;1.00;;;;;;1566997;56;3594;-87
2023/10/30 09:04:33;1046149.00;3.49;1814.38;0.00;0.00;0.62;;;;;19.40;1.00;;;;;;817783;40;3384;-88
2023/10/30 09:09:36;66639.00;0.22;115.95;0.00;0.00;0.62;;;;;19.50;1.00;;;;;;2425373;40;2924;-88
2023/10/30 09:17:08;799895.00;2.67;1380.94;0.00;0.00;0.62;;;;;19.50;1.00;;;;;;1960945;41;3421;-87
2023/10/30 09:22:08;238341.00;0.79;411.90;0.00;0.00;0.62;;;;;19.80;1.00;;;;;;2265373;40;3521;-89
2023/10/30 09:27:05;801566.00;2.67;1383.85;82325.00;0.27;143.05;;;;;19.40;1.00;;;;;;2274183;61;1273;-88
2023/10/30 09:29:33;411938.00;1.37;710.33;82011.00;0.27;142.51;;;;;19.60;1.00;;;;;;2285598;39;3617;-89
2023/10/30 09:32:03;383709.00;1.28;661.80;77113.00;0.26;134.05;;;;;19.70;1.00;;;;;;2275984;61;1577;-88
2023/10/30 09:34:34;336724.00;1.12;581.04;136606.00;0.46;236.72;;;;;19.80;1.00;;;;;;2271909;61;2014;-89
2023/10/30 09:39:30;599733.00;2.00;1033.76;73246.00;0.24;127.37;;;;;19.20;1.00;;;;;;2277997;55;3786;-89
2023/10/30 09:42:00;1030476.00;3.43;1786.52;80033.00;0.27;139.09;;;;;19.40;1.00;;;;;;2282266;61;1825;-89
2023/10/30 09:44:29;339465.00;1.13;585.75;83338.00;0.28;144.80;;;;;19.70;1.00;;;;;;2276392;61;2304;-87
2023/10/30 09:49:28;556932.00;1.86;959.91;141223.00;0.47;244.68;;;;;19.80;1.00;;;;;;2274316;61;1428;-88
2023/10/30 09:52:01;18192.00;0.06;32.14;80065.00;0.27;139.15;;;;;19.80;1.00;;;;;;2272212;61;1189;-88
2023/10/30 09:56:57;547543.00;1.83;943.72;77890.00;0.26;135.39;;;;;19.80;1.00;;;;;;2274074;61;1369;-87
2023/10/30 10:06:54;592013.00;1.97;1020.43;80221.00;0.27;139.42;;;;;20.20;1.00;;;;;;2274321;61;1399;-89
2023/10/30 10:09:23;414333.00;1.38;714.45;87123.00;0.29;151.34;;;;;20.30;1.00;;;;;;2272246;61;1523;-87
2023/10/30 10:14:21;895145.00;2.98;1547.59;76549.00;0.26;133.08;;;;;20.40;1.00;;;;;;2303716;40;3620;-89
2023/10/30 10:16:48;379245.00;1.26;654.13;81861.00;0.27;142.25;;;;;20.50;1.00;;;;;;2280306;61;1525;-87
2023/10/30 10:21:49;464249.00;1.55;800.29;86760.00;0.29;150.71;;;;;20.50;1.00;;;;;;2274016;61;1428;-88
2023/10/30 10:24:28;351596.00;1.17;606.60;76029.00;0.25;132.18;;;;;20.20;1.00;;;;;;2272224;61;1506;-89
2023/10/30 10:26:56;489793.00;1.63;844.25;167590.00;0.56;290.12;;;;;20.40;1.00;;;;;;2272279;61;1691;-88
2023/10/30 10:29:24;345385.00;1.15;595.93;86410.00;0.29;150.11;;;;;20.30;1.00;;;;;;2272206;61;1956;-89
2023/10/30 10:31:51;310971.00;1.04;536.78;83348.00;0.28;144.82;;;;;20.50;1.00;;;;;;2272120;61;1754;-88
2023/10/30 10:34:18;361989.00;1.21;624.47;79339.00;0.26;137.90;;;;;20.70;1.00;;;;;;2272056;61;1915;-88
2023/10/30 10:36:46;445134.00;1.48;767.41;123689.00;0.41;214.45;;;;;20.80;1.00;;;;;;2272055;61;1640;-89
2023/10/30 10:41:48;442085.00;1.47;762.17;79985.00;0.27;139.01;;;;;20.90;1.00;;;;;;2274113;61;1436;-88
2023/10/30 10:44:15;363548.00;1.21;627.15;72089.00;0.24;125.37;;;;;20.90;1.00;;;;;;2272156;61;1241;-88
2023/10/30 10:46:42;498254.00;1.66;858.82;67776.00;0.23;117.92;;;;;20.90;1.00;;;;;;2310684;55;3798;-89
2023/10/30 10:49:10;389682.00;1.30;672.07;68735.00;0.23;119.57;;;;;20.70;1.00;;;;;;2280231;61;1521;-87
2023/10/30 10:51:38;275935.00;0.92;476.55;76434.00;0.25;132.88;;;;;20.60;1.00;;;;;;2280204;61;1539;-88
2023/10/30 10:54:12;236924.00;0.79;409.46;78074.00;0.26;135.71;;;;;20.70;1.00;;;;;;2276317;61;1997;-88
2023/10/30 10:56:44;319085.00;1.06;550.73;134949.00;0.45;233.86;;;;;20.70;1.00;;;;;;2276176;61;1012;-88
2023/10/30 10:59:17;460748.00;1.54;794.27;85356.00;0.28;148.29;;;;;20.80;1.00;;;;;;2276250;61;1093;-88
2023/10/30 11:01:50;594236.00;1.98;1024.27;76289.00;0.25;132.63;;;;;21.10;1.00;;;;;;2276154;61;1421;-89
2023/10/30 11:04:18;672900.00;2.24;1160.28;142341.00;0.47;246.61;;;;;21.20;1.00;;;;;;2276088;61;1457;-88
2023/10/30 11:06:51;385834.00;1.29;665.45;82047.00;0.27;142.57;;;;;21.20;1.00;;;;;;2276058;61;1613;-88
2023/10/30 11:09:25;531372.00;1.77;915.86;84695.00;0.28;147.15;;;;;21.20;1.00;;;;;;2276190;61;1166;-90
2023/10/30 11:14:44;613612.00;2.05;1057.73;83348.00;0.28;144.82;;;;;21.00;1.00;;;;;;2273799;61;1962;-89
2023/10/30 11:17:11;605087.00;2.02;1043.00;83922.00;0.28;145.81;;;;;21.10;1.00;;;;;;2272204;61;1735;-89
2023/10/30 11:19:38;433480.00;1.44;747.37;72953.00;0.24;126.86;;;;;21.10;1.00;;;;;;2271991;61;1561;-89
2023/10/30 11:24:39;156809.00;0.52;271.54;0.00;0.00;0.62;;;;;21.20;1.00;;;;;;2273522;61;1412;-89
2023/10/30 11:27:35;124060.00;0.41;215.09;0.00;0.00;0.62;;;;;21.10;1.00;;;;;;2271980;61;1534;-89
2023/10/30 11:30:07;239212.00;0.80;413.40;78903.00;0.26;137.14;;;;;21.00;1.00;;;;;;2271966;61;1711;-88
2023/10/30 11:32:51;291453.00;0.97;503.23;75167.00;0.25;130.69;;;;;20.50;1.00;;;;;;2271943;61;1560;-88
2023/10/30 11:35:20;565819.00;1.89;975.24;86628.00;0.29;150.48;;;;;20.60;1.00;;;;;;2286584;40;3606;-90